USCGC Polar Star — NBTM — position and weather

sailwx.info

Track history (hours):
 
Tides and Currents Weather Stations Pressure Air Temp Water Temp Dewpoint Dewpoint Depression Visibility Wind Speed Wind Dir Waves Ship Positions

Oceanographic research ship USCGC Polar Star (USA)

Detailed information on ship capabilities available from University of Delaware's Ocean Information Center and ARCUS's ALIAS (Arctic Logistics Information and Support) project.

Last reported at 2014-Dec-01 14:33 UTC. Time now 2014-Dec-18 12:25 UTC.
Position N 48°14' W 125°41'.
Warning: this ship's position is 16 days out of date.

Type: Military. MMSI: 367255000.

Date/timePositionNaut miles runAvg speedWind from/ knotsBaromVisibWave heightAir tempDewpointWater temp
2014-Dec-01 14:33N 48°14' W 125°41'1616.5
2014-Dec-01 13:33N 48°24' W 125°22'1616.0
2014-Dec-01 12:33N 48°31' W 125°00'1717.1
2014-Dec-01 11:33N 48°29' W 124°35'1817.8
2014-Dec-01 10:33N 48°21' W 124°10'1817.5
2014-Dec-01 09:33N 48°16' W 123°45'1717.1
2014-Dec-01 08:33N 48°14' W 123°20'3 2.7
2014-Dec-01 07:24N 48°15' W 123°15'2 2.2
2014-Dec-01 06:33N 48°16' W 123°16'1 1.0
2014-Dec-01 05:32N 48°15' W 123°15'1010.2
2014-Dec-01 04:33N 48°13' W 123°01'1515.2
2014-Dec-01 03:32N 48°07' W 122°39'1515.7
2014-Dec-01 02:33N 47°53' W 122°28'1312.7
2014-Dec-01 01:33N 47°41' W 122°27'4 4.2
2014-Dec-01 00:33N 47°37' W 122°24'2 1.7
2014-Nov-30 23:33N 47°37' W 122°22'  
Track history (hours):
 
Tides and Currents Weather Stations Pressure Air Temp Water Temp Dewpoint Dewpoint Depression Visibility Wind Speed Wind Dir Waves Ship Positions

Oceanographic research ship USCGC Polar Star (USA)

Detailed information on ship capabilities available from University of Delaware's Ocean Information Center and ARCUS's ALIAS (Arctic Logistics Information and Support) project.

Last reported at 2014-Dec-01 14:33 UTC. Time now 2014-Dec-18 12:25 UTC.
Position N 48°14' W 125°41'.
Warning: this ship's position is 16 days out of date.

Type: Military. MMSI: 367255000.

Date/timePositionNaut miles runAvg speedWind from/ knotsBaromVisibWave heightAir tempDewpointWater temp
2014-Dec-01 14:33N 48°14' W 125°41'1616.5
2014-Dec-01 13:33N 48°24' W 125°22'1616.0
2014-Dec-01 12:33N 48°31' W 125°00'1717.1
2014-Dec-01 11:33N 48°29' W 124°35'1817.8
2014-Dec-01 10:33N 48°21' W 124°10'1817.5
2014-Dec-01 09:33N 48°16' W 123°45'1717.1
2014-Dec-01 08:33N 48°14' W 123°20'3 2.7
2014-Dec-01 07:24N 48°15' W 123°15'2 2.2
2014-Dec-01 06:33N 48°16' W 123°16'1 1.0
2014-Dec-01 05:32N 48°15' W 123°15'1010.2
2014-Dec-01 04:33N 48°13' W 123°01'1515.2
2014-Dec-01 03:32N 48°07' W 122°39'1515.7
2014-Dec-01 02:33N 47°53' W 122°28'1312.7
2014-Dec-01 01:33N 47°41' W 122°27'4 4.2
2014-Dec-01 00:33N 47°37' W 122°24'2 1.7
2014-Nov-30 23:33N 47°37' W 122°22'  

Dump ship's entire track history